Terminal Aerodrome Forecast
Issued by NWS Charleston, WV

Current Version | Previous Version | Graphics & Text | Print | Product List | Glossary On
Versions: 1 2 3 4 5 6 7 8 9 10 11 12 13 14 15 16 17 18 19 20 21 22 23
000
FTUS41 KRLX 222339
TAFBKW
TAF
KBKW 222339Z 2300/2324 33005KT P6SM BKN028
     FM230100 34004KT P6SM FEW035
     FM231500 28007KT P6SM SCT200
     FM232000 31006KT P6SM SCT100=

USA.gov is the U.S. government's official web portal to all federal, state and local government web resources and services.